createdAt,value
2022-08-19T00:01:53.151Z,100042.75
2022-08-19T00:04:22.471Z,100045.13
2022-08-19T00:06:49.143Z,100051.84
2022-08-19T00:09:17.932Z,100051.78
2022-08-19T00:11:45.012Z,100049.06
2022-08-19T00:14:14.380Z,100047.69
2022-08-19T00:16:43.350Z,100046.22
2022-08-19T00:19:10.269Z,100044.84
2022-08-19T00:21:40.502Z,100042.38
2022-08-19T00:24:10.011Z,100045.56
2022-08-19T00:26:38.286Z,100040.91
2022-08-19T00:29:06.278Z,100042.22
2022-08-19T00:31:33.068Z,100038.13
2022-08-19T00:34:00.001Z,100046.16
2022-08-19T00:36:26.447Z,100041.34
2022-08-19T00:38:53.306Z,100041.91
2022-08-19T00:41:22.344Z,100044.03
2022-08-19T00:44:05.929Z,100040.19
2022-08-19T00:46:34.246Z,99991.56
2022-08-19T00:49:03.360Z,100038.81
2022-08-19T00:51:33.300Z,100034.69
2022-08-19T00:54:01.968Z,100019.59
2022-08-19T00:56:28.992Z,100038.94
2022-08-19T00:58:57.345Z,100045.66
2022-08-19T01:01:23.799Z,100018.13
2022-08-19T01:03:58.139Z,100039.09
2022-08-19T01:06:26.258Z,100035.56
2022-08-19T01:08:52.824Z,100039.81
2022-08-19T01:11:19.282Z,100041.13
2022-08-19T01:13:49.913Z,100039.75
2022-08-19T01:16:18.593Z,100043.50
2022-08-19T01:18:45.029Z,100034.50
2022-08-19T01:21:23.405Z,100043.09
2022-08-19T01:23:49.963Z,100044.38
2022-08-19T01:26:19.979Z,100036.19
2022-08-19T01:28:48.444Z,100038.06
2022-08-19T01:31:26.957Z,100043.94
2022-08-19T01:33:55.904Z,100037.41
2022-08-19T01:36:29.973Z,100031.34
2022-08-19T01:38:57.290Z,100014.94
2022-08-19T01:41:24.327Z,100024.75
2022-08-19T01:44:13.982Z,100029.09
2022-08-19T01:46:38.982Z,100027.69
2022-08-19T01:49:07.150Z,100020.91
2022-08-19T01:51:39.712Z,100023.84
2022-08-19T01:54:07.792Z,100015.97
2022-08-19T01:56:34.226Z,100017.88
2022-08-19T01:59:04.006Z,100014.59
2022-08-19T02:01:32.796Z,100015.66
2022-08-19T02:04:01.535Z,100018.34
2022-08-19T02:06:28.830Z,100026.69
2022-08-19T02:08:57.374Z,100007.97
2022-08-19T02:11:34.362Z,100029.78
2022-08-19T02:14:06.665Z,100033.22
2022-08-19T02:16:33.578Z,100049.31
2022-08-19T02:19:02.822Z,100029.84
2022-08-19T02:21:30.734Z,100025.16
2022-08-19T02:23:57.794Z,100023.16
2022-08-19T02:26:24.443Z,100019.06
2022-08-19T02:28:50.845Z,100026.69
2022-08-19T02:31:20.634Z,100023.16
2022-08-19T02:33:48.358Z,100023.38
2022-08-19T02:36:16.398Z,100026.69
2022-08-19T02:38:54.337Z,100019.97
2022-08-19T02:41:26.610Z,100034.78
2022-08-19T02:44:22.801Z,100036.06
2022-08-19T02:46:40.851Z,100033.16
2022-08-19T02:49:08.562Z,100046.66
2022-08-19T02:51:41.841Z,100043.72
2022-08-19T02:54:10.813Z,100052.38
2022-08-19T02:56:39.140Z,100047.22
2022-08-19T02:59:09.186Z,100045.59
2022-08-19T03:01:37.770Z,100043.94
2022-08-19T03:04:06.668Z,100033.81
2022-08-19T03:06:36.925Z,100039.22
2022-08-19T03:09:03.477Z,100032.56
2022-08-19T03:11:32.036Z,100036.31
2022-08-19T03:13:59.748Z,100036.88
2022-08-19T03:16:33.462Z,100048.28
2022-08-19T03:19:01.868Z,100044.75
2022-08-19T03:21:33.553Z,100041.47
2022-08-19T03:24:04.678Z,100044.41
2022-08-19T03:26:31.714Z,100045.69
2022-08-19T03:28:59.109Z,100044.84
2022-08-19T03:31:43.455Z,100048.06
2022-08-19T03:34:16.141Z,100050.75
2022-08-19T03:36:42.986Z,100049.91
2022-08-19T03:39:10.749Z,100053.69
2022-08-19T03:41:45.651Z,100054.72
2022-08-19T03:44:19.496Z,100054.72
2022-08-19T03:46:52.853Z,100058.97
2022-08-19T03:49:20.886Z,100064.84
2022-08-19T03:51:49.149Z,100058.28
2022-08-19T03:54:18.303Z,100060.63
2022-08-19T03:56:46.965Z,100062.38
2022-08-19T03:59:18.341Z,100069.09
2022-08-19T04:01:44.990Z,100061.22
2022-08-19T04:04:11.416Z,100064.16
2022-08-19T04:06:39.607Z,100063.59
2022-08-19T04:09:09.740Z,100065.72
2022-08-19T04:11:43.480Z,100065.44
2022-08-19T04:14:13.412Z,100064.41
2022-08-19T04:16:39.946Z,100062.50
2022-08-19T04:19:07.445Z,100073.53
2022-08-19T04:21:34.413Z,100075.78
2022-08-19T04:24:01.421Z,100061.22
2022-08-19T04:26:36.042Z,100071.06
2022-08-19T04:29:09.170Z,100070.84
2022-08-19T04:31:38.350Z,100074.00
2022-08-19T04:34:07.213Z,100087.75
2022-08-19T04:36:36.138Z,100082.38
2022-08-19T04:39:16.568Z,100089.84
2022-08-19T04:42:02.249Z,100092.19
2022-08-19T04:44:31.445Z,100085.75
2022-08-19T04:46:59.741Z,100090.69
2022-08-19T04:49:28.048Z,100063.94
2022-08-19T04:51:55.348Z,100097.81
2022-08-19T04:54:37.916Z,100095.25
2022-08-19T04:57:08.440Z,100097.81
2022-08-19T04:59:36.085Z,100094.78
2022-08-19T05:02:03.116Z,100099.59
2022-08-19T05:04:32.615Z,100107.81
2022-08-19T05:07:01.012Z,100111.91
2022-08-19T05:09:28.695Z,100107.31
2022-08-19T05:12:16.391Z,100104.50
2022-08-19T05:14:42.764Z,100113.16
2022-08-19T05:17:26.654Z,100113.50
2022-08-19T05:20:12.424Z,100129.50
2022-08-19T05:22:38.855Z,100101.69
2022-08-19T05:25:13.172Z,100118.69
2022-08-19T05:27:40.785Z,100123.63
2022-08-19T05:30:07.852Z,100129.59
2022-08-19T05:32:34.495Z,100121.81
2022-08-19T05:35:00.913Z,100121.25
2022-08-19T05:37:28.446Z,100121.13
2022-08-19T05:39:55.594Z,100124.41
2022-08-19T05:42:23.717Z,100125.81
2022-08-19T05:44:51.402Z,100124.06
2022-08-19T05:47:20.499Z,100128.75
2022-08-19T05:49:47.193Z,100129.91
2022-08-19T05:52:19.516Z,100128.84
2022-08-19T05:54:52.021Z,100107.28
2022-08-19T05:57:19.933Z,100123.22
2022-08-19T05:59:53.192Z,100132.72
2022-08-19T06:02:25.789Z,100115.59
2022-08-19T06:04:52.227Z,100126.13
2022-08-19T06:07:18.659Z,100126.69
2022-08-19T06:10:00.114Z,100120.16
2022-08-19T06:12:37.196Z,100116.25
2022-08-19T06:15:10.174Z,100116.47
2022-08-19T06:17:37.125Z,100112.81
2022-08-19T06:20:09.737Z,100112.28
2022-08-19T06:22:40.958Z,100118.97
2022-08-19T06:25:07.961Z,100115.28
2022-08-19T06:27:34.685Z,100119.25
2022-08-19T06:30:01.313Z,100122.16
2022-08-19T06:32:27.705Z,100119.88
2022-08-19T06:34:54.189Z,100119.41
2022-08-19T06:37:22.572Z,100128.81
2022-08-19T06:39:49.778Z,100124.63
2022-08-19T06:42:19.361Z,100112.50
2022-08-19T06:44:49.347Z,100125.53
2022-08-19T06:47:23.769Z,100131.09
2022-08-19T06:49:54.617Z,100130.09
2022-08-19T06:52:27.525Z,100117.13
2022-08-19T06:54:56.927Z,100132.88
2022-08-19T06:57:27.290Z,100117.94
2022-08-19T06:59:54.021Z,100147.53
2022-08-19T07:02:21.682Z,100146.50
2022-08-19T07:04:48.442Z,100148.53
2022-08-19T07:07:21.818Z,100148.34
2022-08-19T07:09:57.909Z,100150.94
2022-08-19T07:12:29.623Z,100134.78
2022-08-19T07:14:58.591Z,100156.22
2022-08-19T07:17:25.175Z,100148.69
2022-08-19T07:19:54.455Z,100152.34
2022-08-19T07:22:21.581Z,100154.06
2022-08-19T07:24:51.469Z,100166.88
2022-08-19T07:27:24.470Z,100161.78
2022-08-19T07:29:55.875Z,100155.56
2022-08-19T07:32:24.118Z,100169.31
2022-08-19T07:34:50.491Z,100176.38
2022-08-19T07:37:17.325Z,100174.56
2022-08-19T07:39:43.940Z,100178.69
2022-08-19T07:42:13.263Z,100171.66
2022-08-19T07:47:47.988Z,100171.72
2022-08-19T07:50:05.445Z,100187.81
2022-08-19T07:52:34.403Z,100186.25
2022-08-19T07:55:04.473Z,100197.16
2022-08-19T07:57:31.025Z,100190.03
2022-08-19T07:59:57.482Z,100170.94
2022-08-19T08:02:23.848Z,100193.91
2022-08-19T08:05:08.916Z,100200.16
2022-08-19T08:07:53.922Z,100206.16
2022-08-19T08:10:21.475Z,100210.00
2022-08-19T08:12:51.385Z,100217.66
2022-08-19T08:15:39.967Z,100213.34
2022-08-19T08:18:08.547Z,100212.03
2022-08-19T08:20:36.056Z,100219.16
2022-08-19T08:23:20.868Z,100229.50
2022-08-19T08:25:49.330Z,100209.13
2022-08-19T08:28:17.711Z,100227.13
2022-08-19T08:30:46.582Z,100224.69
2022-08-19T08:33:13.117Z,100224.66
2022-08-19T08:35:46.422Z,100223.81
2022-08-19T08:38:13.658Z,100231.19
2022-08-19T08:40:55.652Z,100202.63
2022-08-19T08:43:30.661Z,100225.22
2022-08-19T08:46:12.409Z,100222.25
2022-08-19T08:48:47.145Z,100209.47
2022-08-19T08:51:44.819Z,100207.00
2022-08-19T08:54:18.705Z,100213.81
2022-08-19T08:56:46.744Z,100210.59
2022-08-19T08:59:34.200Z,100205.69
2022-08-19T09:02:01.124Z,100216.88
2022-08-19T09:04:28.305Z,100213.41
2022-08-19T09:07:27.149Z,100203.06
2022-08-19T09:10:29.922Z,100219.91
2022-08-19T09:13:19.656Z,100221.16
2022-08-19T09:15:51.875Z,100205.78
2022-08-19T09:18:19.639Z,100226.50
2022-08-19T09:20:48.304Z,100212.13
2022-08-19T09:23:15.148Z,100217.59
2022-08-19T09:25:42.057Z,100216.88
2022-08-19T09:28:20.617Z,100202.94
2022-08-19T09:30:49.237Z,100206.72
2022-08-19T09:33:16.998Z,100216.50
2022-08-19T09:35:52.896Z,100219.44
2022-08-19T09:38:20.739Z,100217.94
2022-08-19T09:40:47.398Z,100210.56
2022-08-19T09:43:13.749Z,100212.09
2022-08-19T09:45:40.440Z,100212.38
2022-08-19T09:48:07.142Z,100206.97
2022-08-19T09:50:35.002Z,100208.66
2022-08-19T09:53:01.458Z,100216.41
2022-08-19T09:55:31.742Z,100217.88
2022-08-19T09:58:03.030Z,100216.31
2022-08-19T10:00:30.091Z,100216.63
2022-08-19T10:02:56.553Z,100218.09
2022-08-19T10:05:55.180Z,100225.31
2022-08-19T10:08:26.664Z,100224.47
2022-08-19T10:10:55.835Z,100219.88
2022-08-19T10:13:26.985Z,100210.03
2022-08-19T10:15:56.969Z,100210.28
2022-08-19T10:18:25.360Z,100200.56
2022-08-19T10:20:54.457Z,100212.56
2022-08-19T10:23:22.022Z,100190.25
2022-08-19T10:25:49.284Z,100223.13
2022-08-19T10:28:16.131Z,100226.94
2022-08-19T10:30:46.128Z,100221.06
2022-08-19T10:33:12.872Z,100220.84
2022-08-19T10:35:42.804Z,100219.53
2022-08-19T10:38:31.805Z,100208.81
2022-08-19T10:41:07.501Z,100215.34
2022-08-19T10:43:38.077Z,100216.69
2022-08-19T10:46:06.580Z,100223.94
2022-08-19T10:48:41.575Z,100216.06
2022-08-19T10:51:27.578Z,100210.78
2022-08-19T10:53:54.361Z,100206.28
2022-08-19T10:56:39.136Z,100207.97
2022-08-19T10:59:05.705Z,100199.72
2022-08-19T11:01:34.905Z,100197.66
2022-08-19T11:04:03.208Z,100202.63
2022-08-19T11:06:31.781Z,100201.84
2022-08-19T11:08:58.720Z,100195.47
2022-08-19T11:11:25.153Z,100182.56
2022-08-19T11:13:51.535Z,100184.50
2022-08-19T11:16:21.075Z,100181.69
2022-08-19T11:18:51.544Z,100181.75
2022-08-19T11:21:20.307Z,100184.66
2022-08-19T11:23:48.809Z,100181.00
2022-08-19T11:26:16.538Z,100184.97
2022-08-19T11:28:43.615Z,100177.41
2022-08-19T11:31:18.522Z,100182.84
2022-08-19T11:33:47.841Z,100185.22
2022-08-19T11:36:15.346Z,100180.44
2022-08-19T11:38:42.270Z,100165.75
2022-08-19T11:41:09.181Z,100174.09
2022-08-19T11:43:37.666Z,100178.13
2022-08-19T11:46:07.801Z,100184.75
2022-08-19T11:48:35.432Z,100170.44
2022-08-19T11:51:07.121Z,100177.72
2022-08-19T11:53:35.019Z,100174.28
2022-08-19T11:56:01.757Z,100160.28
2022-08-19T11:58:28.201Z,100171.16
2022-08-19T12:00:54.592Z,100164.06
2022-08-19T12:03:21.046Z,100169.41
2022-08-19T12:05:47.570Z,100163.13
2022-08-19T12:08:14.301Z,100161.28
2022-08-19T12:10:43.025Z,100161.78
2022-08-19T12:13:16.536Z,100175.22
2022-08-19T12:15:42.917Z,100173.47
2022-08-19T12:18:10.105Z,100173.97
2022-08-19T12:20:38.523Z,100174.59
2022-08-19T12:23:06.719Z,100176.69
2022-08-19T12:25:33.987Z,100177.69
2022-08-19T12:28:00.659Z,100168.56
2022-08-19T12:30:27.441Z,100181.25
2022-08-19T12:32:54.555Z,100166.19
2022-08-19T12:35:22.146Z,100169.59
2022-08-19T12:37:57.016Z,100163.75
2022-08-19T12:40:26.462Z,100164.19
2022-08-19T12:42:53.022Z,100158.94
2022-08-19T12:45:20.039Z,100151.59
2022-08-19T12:47:47.751Z,100153.31
2022-08-19T12:50:14.481Z,100153.38
2022-08-19T12:52:43.209Z,100138.09
2022-08-19T12:55:10.120Z,100140.69
2022-08-19T12:57:36.683Z,100146.59
2022-08-19T13:00:15.359Z,100142.97
2022-08-19T13:02:45.379Z,100151.53
2022-08-19T13:05:16.935Z,100130.97
2022-08-19T13:07:44.824Z,100142.34
2022-08-19T13:10:15.098Z,100144.47
2022-08-19T13:12:42.253Z,100121.97
2022-08-19T13:15:10.844Z,100120.50
2022-08-19T13:17:39.195Z,100122.41
2022-08-19T13:20:08.736Z,100113.56
2022-08-19T13:22:36.836Z,100107.81
2022-08-19T13:25:04.779Z,100095.44
2022-08-19T13:27:31.174Z,100111.31
2022-08-19T13:30:16.183Z,100101.66
2022-08-19T13:33:01.115Z,100126.56
2022-08-19T13:35:27.485Z,100118.75
2022-08-19T13:37:54.055Z,100113.38
2022-08-19T13:40:24.785Z,100111.44
2022-08-19T13:42:53.949Z,100099.41
2022-08-19T13:45:23.853Z,100106.81
2022-08-19T13:47:58.667Z,100100.09
2022-08-19T13:50:28.968Z,100100.03
2022-08-19T13:52:56.136Z,100094.97
2022-08-19T13:55:25.096Z,100080.47
2022-08-19T13:57:57.888Z,100094.19
2022-08-19T14:00:27.386Z,100087.28
2022-08-19T14:02:56.583Z,100087.47
2022-08-19T14:05:24.467Z,100087.03
2022-08-19T14:07:51.367Z,100073.94
2022-08-19T14:10:19.808Z,100085.66
2022-08-19T14:12:47.258Z,100070.97
2022-08-19T14:15:14.617Z,100090.09
2022-08-19T14:17:44.107Z,100073.59
2022-08-19T14:20:17.609Z,100083.97
2022-08-19T14:22:46.684Z,100087.00
2022-08-19T14:25:18.928Z,100088.25
2022-08-19T14:27:46.130Z,100089.66
2022-08-19T14:30:19.146Z,100089.56
2022-08-19T14:32:45.678Z,100102.53
2022-08-19T14:35:15.053Z,100109.38
2022-08-19T14:37:56.601Z,100106.81
2022-08-19T14:40:26.803Z,100103.34
2022-08-19T14:42:56.660Z,100107.06
2022-08-19T14:45:23.133Z,100108.66
2022-08-19T14:47:49.678Z,100106.75
2022-08-19T14:50:18.332Z,100112.16
2022-08-19T14:52:48.729Z,100100.88
2022-08-19T14:55:16.530Z,100102.53
2022-08-19T14:57:44.047Z,100107.00
2022-08-19T15:00:14.740Z,100098.63
2022-08-19T15:02:42.511Z,100108.28
2022-08-19T15:05:09.640Z,100104.13
2022-08-19T15:07:36.652Z,100107.84
2022-08-19T15:10:04.862Z,100106.94
2022-08-19T15:12:31.471Z,100098.47
2022-08-19T15:14:57.849Z,100109.59
2022-08-19T15:17:43.721Z,100109.31
2022-08-19T15:20:16.509Z,100111.66
2022-08-19T15:22:43.228Z,100115.50
2022-08-19T15:25:12.355Z,100109.34
2022-08-19T15:27:40.536Z,100108.22
2022-08-19T15:30:09.153Z,100118.56
2022-08-19T15:32:37.203Z,100117.03
2022-08-19T15:35:05.943Z,100118.25
2022-08-19T15:37:32.897Z,100121.59
2022-08-19T15:40:05.437Z,100121.72
2022-08-19T15:42:32.024Z,100119.59
2022-08-19T15:45:01.427Z,100113.78
2022-08-19T15:47:35.574Z,100122.34
2022-08-19T15:50:10.527Z,100120.84
2022-08-19T15:52:37.601Z,100124.19
2022-08-19T15:55:19.271Z,100123.88
2022-08-19T15:58:28.830Z,100119.19
2022-08-19T16:01:18.303Z,100113.19
2022-08-19T16:04:05.385Z,100120.13
2022-08-19T16:06:40.743Z,100107.22
2022-08-19T16:09:07.146Z,100127.03
2022-08-19T16:11:39.324Z,100132.81
2022-08-19T16:14:09.206Z,100128.03
2022-08-19T16:16:37.588Z,100129.78
2022-08-19T16:19:10.401Z,100125.84
2022-08-19T16:21:41.540Z,100133.84
2022-08-19T16:24:11.974Z,100124.28
2022-08-19T16:26:39.186Z,100130.09
2022-08-19T16:29:09.126Z,100132.34
2022-08-19T16:31:41.554Z,100139.84
2022-08-19T16:34:08.350Z,100139.31
2022-08-19T16:36:34.729Z,100140.25
2022-08-19T16:39:01.753Z,100140.94
2022-08-19T16:41:29.024Z,100138.03
2022-08-19T16:43:55.558Z,100130.00
2022-08-19T16:46:23.402Z,100128.88
2022-08-19T16:48:53.904Z,100129.78
2022-08-19T16:51:21.410Z,100135.66
2022-08-19T16:53:48.961Z,100137.66
2022-08-19T16:56:15.472Z,100129.50
2022-08-19T16:58:43.108Z,100144.88
2022-08-19T17:01:10.763Z,100142.09
2022-08-19T17:03:39.865Z,100143.50
2022-08-19T17:06:20.438Z,100148.31
2022-08-19T17:08:52.006Z,100146.63
2022-08-19T17:11:19.802Z,100135.22
2022-08-19T17:13:47.689Z,100132.91
2022-08-19T17:16:15.649Z,100119.19
2022-08-19T17:18:42.041Z,100136.31
2022-08-19T17:21:08.397Z,100136.31
2022-08-19T17:23:37.553Z,100141.03
2022-08-19T17:26:16.996Z,100143.00
2022-08-19T17:28:50.106Z,100141.72
2022-08-19T17:31:19.183Z,100148.06
2022-08-19T17:33:48.364Z,100126.59
2022-08-19T17:36:19.856Z,100137.22
2022-08-19T17:38:46.466Z,100141.03
2022-08-19T17:41:12.996Z,100138.63
2022-08-19T17:43:43.321Z,100133.81
2022-08-19T17:46:11.130Z,100140.41
2022-08-19T17:48:40.509Z,100132.31
2022-08-19T17:51:17.374Z,100130.66
2022-08-19T17:53:50.545Z,100129.63
2022-08-19T17:56:17.029Z,100131.75
2022-08-19T17:58:44.163Z,100132.59
2022-08-19T18:01:15.982Z,100126.00
2022-08-19T18:03:44.196Z,100131.47
2022-08-19T18:06:13.061Z,100129.34
2022-08-19T18:08:39.879Z,100126.16
2022-08-19T18:11:08.141Z,100129.25
2022-08-19T18:13:35.372Z,100130.41
2022-08-19T18:16:03.174Z,100116.66
2022-08-19T18:18:29.562Z,100130.31
2022-08-19T18:20:56.479Z,100135.34
2022-08-19T18:23:44.754Z,100132.16
2022-08-19T18:26:09.962Z,100134.38
2022-08-19T18:28:38.389Z,100123.81
2022-08-19T18:31:04.848Z,100128.19
2022-08-19T18:33:31.239Z,100129.81
2022-08-19T18:35:57.693Z,100126.03
2022-08-19T18:38:42.494Z,100122.56
2022-08-19T18:41:28.329Z,100136.22
2022-08-19T18:44:13.157Z,100143.34
2022-08-19T18:46:58.021Z,100138.47
2022-08-19T18:49:28.007Z,100145.59
2022-08-19T18:51:56.603Z,100145.59
2022-08-19T18:54:24.894Z,100144.22
2022-08-19T18:56:55.487Z,100154.09
2022-08-19T18:59:27.525Z,100154.38
2022-08-19T19:01:56.977Z,100150.59
2022-08-19T19:04:35.248Z,100153.88
2022-08-19T19:07:01.618Z,100159.88
2022-08-19T19:09:28.333Z,100169.44
2022-08-19T19:11:58.027Z,100167.00
2022-08-19T19:14:48.672Z,100177.06
2022-08-19T19:17:16.525Z,100174.09
2022-08-19T19:19:44.140Z,100174.94
2022-08-19T19:22:17.782Z,100181.19
2022-08-19T19:24:44.188Z,100186.66
2022-08-19T19:27:12.863Z,100197.28
2022-08-19T19:29:40.122Z,100193.78
2022-08-19T19:32:09.484Z,100192.41
2022-08-19T19:34:39.209Z,100184.78
2022-08-19T19:37:06.069Z,100202.78
2022-08-19T19:39:45.994Z,100189.44
2022-08-19T19:42:20.031Z,100197.06
2022-08-19T19:44:48.575Z,100195.97
2022-08-19T19:47:15.545Z,100194.06
2022-08-19T19:50:03.798Z,100189.69
2022-08-19T19:52:28.353Z,100197.06
2022-08-19T19:54:56.617Z,100193.81
2022-08-19T19:57:26.656Z,100203.59
2022-08-19T19:59:54.041Z,100208.78
2022-08-19T20:02:21.752Z,100209.84
2022-08-19T20:04:48.751Z,100219.63
2022-08-19T20:07:15.183Z,100231.09
2022-08-19T20:09:58.873Z,100227.00
2022-08-19T20:12:26.560Z,100230.81
2022-08-19T20:14:52.943Z,100219.94
2022-08-19T20:17:20.442Z,100227.56
2022-08-19T20:19:47.785Z,100232.50
2022-08-19T20:22:14.392Z,100236.84
2022-08-19T20:24:42.419Z,100239.56
2022-08-19T20:27:09.154Z,100248.56
2022-08-19T20:29:41.556Z,100231.94
2022-08-19T20:32:11.106Z,100246.38
2022-08-19T20:34:39.168Z,100245.00
2022-08-19T20:37:05.662Z,100247.47
2022-08-19T20:39:32.146Z,100257.53
2022-08-19T20:41:58.673Z,100248.81
2022-08-19T20:44:25.319Z,100250.41
2022-08-19T20:46:54.527Z,100248.22
2022-08-19T20:49:22.961Z,100259.34
2022-08-19T20:51:54.408Z,100262.84
2022-08-19T20:54:20.780Z,100258.50
2022-08-19T20:56:47.152Z,100250.88
2022-08-19T20:59:13.507Z,100253.56
2022-08-19T21:01:39.878Z,100247.00
2022-08-19T21:04:06.245Z,100259.53
2022-08-19T21:06:32.585Z,100264.16
2022-08-19T21:08:58.952Z,100263.88
2022-08-19T21:11:25.314Z,100264.97
2022-08-19T21:13:51.708Z,100269.59
2022-08-19T21:16:18.129Z,100268.78
2022-08-19T21:18:44.774Z,100264.09
2022-08-19T21:21:11.195Z,100268.19
2022-08-19T21:23:37.593Z,100269.28
2022-08-19T21:26:04.025Z,100270.91
2022-08-19T21:28:35.899Z,100270.88
2022-08-19T21:31:04.246Z,100271.16
2022-08-19T21:33:32.097Z,100264.31
2022-08-19T21:35:59.953Z,100264.25
2022-08-19T21:38:26.725Z,100270.78
2022-08-19T21:40:53.180Z,100263.09
2022-08-19T21:43:19.600Z,100270.72
2022-08-19T21:45:47.416Z,100265.81
2022-08-19T21:48:14.752Z,100267.69
2022-08-19T21:50:42.393Z,100271.75
2022-08-19T21:53:09.033Z,100265.75
2022-08-19T21:55:38.987Z,100262.19
2022-08-19T21:58:05.345Z,100268.97
2022-08-19T22:00:34.100Z,100276.28
2022-08-19T22:03:03.563Z,100274.38
2022-08-19T22:05:31.432Z,100265.09
2022-08-19T22:07:59.489Z,100271.09
2022-08-19T22:10:31.833Z,100274.31
2022-08-19T22:12:58.439Z,100269.66
2022-08-19T22:15:29.500Z,100276.50
2022-08-19T22:17:58.420Z,100253.28
2022-08-19T22:20:29.238Z,100280.19
2022-08-19T22:23:00.574Z,100272.84
2022-08-19T22:25:31.970Z,100275.00
2022-08-19T22:28:01.821Z,100259.94
2022-08-19T22:30:33.697Z,100286.66
2022-08-19T22:33:03.757Z,100276.84
2022-08-19T22:35:33.647Z,100257.66
2022-08-19T22:38:00.609Z,100274.97
2022-08-19T22:40:29.600Z,100280.97
2022-08-19T22:43:05.810Z,100289.09
2022-08-19T22:45:33.412Z,100289.38
2022-08-19T22:48:00.237Z,100291.81
2022-08-19T22:50:26.598Z,100288.56
2022-08-19T22:52:57.855Z,100289.38
2022-08-19T22:55:26.373Z,100280.03
2022-08-19T22:57:53.382Z,100275.78
2022-08-19T23:00:21.751Z,100291.81
2022-08-19T23:02:52.390Z,100287.72
2022-08-19T23:05:20.862Z,100276.84
2022-08-19T23:07:50.124Z,100275.78
2022-08-19T23:10:27.423Z,100287.47
2022-08-19T23:12:56.939Z,100250.06
2022-08-19T23:15:26.277Z,100272.81
2022-08-19T23:17:55.488Z,100275.28
2022-08-19T23:20:26.882Z,100275.28
2022-08-19T23:22:54.794Z,100273.34
2022-08-19T23:25:25.649Z,100275.81
2022-08-19T23:28:10.599Z,100277.91
2022-08-19T23:30:43.602Z,100278.19
2022-08-19T23:33:46.571Z,100286.31
2022-08-19T23:36:17.866Z,100281.63
2022-08-19T23:38:47.225Z,100279.41
2022-08-19T23:41:17.790Z,100284.53
2022-08-19T23:43:44.578Z,100277.47
2022-08-19T23:46:14.459Z,100276.34
2022-08-19T23:48:54.595Z,100275.78
2022-08-19T23:51:20.953Z,100276.59
2022-08-19T23:53:47.393Z,100285.31
2022-08-19T23:56:13.801Z,100282.03
2022-08-19T23:58:40.467Z,100271.41
